sensor_id;sensor_type;location;lat;lon;timestamp;pressure;altitude;pressure_sealevel;temperature;humidity
40918;BME280;26644;50.248;19.032;2023-12-20T11:47:35;97407.56;;;18.19;35.09
40918;BME280;26644;50.248;19.032;2023-12-20T11:50:41;97387.59;;;15.36;39.40
40918;BME280;26644;50.248;19.032;2023-12-20T11:53:51;97385.53;;;12.86;44.31
40918;BME280;26644;50.248;19.032;2023-12-20T11:56:57;97383.44;;;10.92;48.83
40918;BME280;26644;50.248;19.032;2023-12-20T12:00:02;97383.00;;;9.50;52.59
40918;BME280;26644;50.248;19.032;2023-12-20T12:03:17;97378.75;;;8.38;56.47
40918;BME280;26644;50.248;19.032;2023-12-20T12:06:21;97371.03;;;7.57;59.20
40918;BME280;26644;50.248;19.032;2023-12-20T12:09:27;97367.06;;;6.94;61.96
40918;BME280;26644;50.248;19.032;2023-12-20T12:12:31;97368.38;;;6.52;64.38
40918;BME280;26644;50.248;19.032;2023-12-20T12:15:37;97358.13;;;6.28;65.95
40918;BME280;26644;50.248;19.032;2023-12-20T12:18:46;97361.44;;;6.09;66.40
40918;BME280;26644;50.248;19.032;2023-12-20T12:21:51;97371.28;;;6.00;67.18
40918;BME280;26644;50.248;19.032;2023-12-20T12:25:13;97369.09;;;5.92;68.04
40918;BME280;26644;50.248;19.032;2023-12-20T12:28:18;97363.91;;;5.85;68.52
40918;BME280;26644;50.248;19.032;2023-12-20T12:31:23;97364.75;;;5.81;69.14
40918;BME280;26644;50.248;19.032;2023-12-20T12:34:32;97365.31;;;5.72;69.45
40918;BME280;26644;50.248;19.032;2023-12-20T12:37:38;97363.13;;;5.69;69.41
40918;BME280;26644;50.248;19.032;2023-12-20T12:40:45;97348.97;;;5.67;69.74
40918;BME280;26644;50.248;19.032;2023-12-20T12:43:49;97361.22;;;5.70;70.15
40918;BME280;26644;50.248;19.032;2023-12-20T12:46:55;97361.22;;;5.70;69.91
40918;BME280;26644;50.248;19.032;2023-12-20T12:50:02;97362.03;;;5.70;69.89
40918;BME280;26644;50.248;19.032;2023-12-20T12:53:08;97348.13;;;5.72;70.19
40918;BME280;26644;50.248;19.032;2023-12-20T12:56:15;97359.88;;;5.67;70.21
40918;BME280;26644;50.248;19.032;2023-12-20T12:59:20;97352.22;;;5.64;70.59
40918;BME280;26644;50.248;19.032;2023-12-20T13:02:25;97351.16;;;5.55;71.15
40918;BME280;26644;50.248;19.032;2023-12-20T13:05:33;97363.69;;;5.51;71.73
40918;BME280;26644;50.248;19.032;2023-12-20T13:08:38;97368.59;;;5.49;71.54
40918;BME280;26644;50.248;19.032;2023-12-20T13:11:43;97355.50;;;5.45;71.78
40918;BME280;26644;50.248;19.032;2023-12-20T13:14:48;97353.63;;;5.46;72.17
40918;BME280;26644;50.248;19.032;2023-12-20T13:17:53;97362.31;;;5.48;71.88
40918;BME280;26644;50.248;19.032;2023-12-20T13:21:00;97351.41;;;5.48;72.45
40918;BME280;26644;50.248;19.032;2023-12-20T13:24:06;97359.06;;;5.51;72.45
40918;BME280;26644;50.248;19.032;2023-12-20T13:27:11;97347.06;;;5.52;72.84
40918;BME280;26644;50.248;19.032;2023-12-20T13:30:17;97348.41;;;5.55;72.47
40918;BME280;26644;50.248;19.032;2023-12-20T13:33:21;97341.91;;;5.56;72.64
40918;BME280;26644;50.248;19.032;2023-12-20T13:36:29;97344.34;;;5.57;72.28
40918;BME280;26644;50.248;19.032;2023-12-20T13:39:34;97341.09;;;5.60;72.28
40918;BME280;26644;50.248;19.032;2023-12-20T13:42:39;97346.81;;;5.59;72.37
40918;BME280;26644;50.248;19.032;2023-12-20T13:45:44;97350.06;;;5.66;72.19
40918;BME280;26644;50.248;19.032;2023-12-20T13:48:49;97354.94;;;5.69;72.12
40918;BME280;26644;50.248;19.032;2023-12-20T13:51:56;97358.78;;;5.68;72.12
40918;BME280;26644;50.248;19.032;2023-12-20T13:55:01;97351.97;;;5.66;72.63
40918;BME280;26644;50.248;19.032;2023-12-20T13:58:06;97352.50;;;5.63;72.49
40918;BME280;26644;50.248;19.032;2023-12-20T14:01:12;97355.50;;;5.61;72.24
40918;BME280;26644;50.248;19.032;2023-12-20T14:04:16;97363.41;;;5.57;72.50
40918;BME280;26644;50.248;19.032;2023-12-20T14:07:24;97365.88;;;5.54;72.55
40918;BME280;26644;50.248;19.032;2023-12-20T14:10:30;97365.03;;;5.48;72.80
40918;BME280;26644;50.248;19.032;2023-12-20T14:13:35;97362.31;;;5.43;72.84
40918;BME280;26644;50.248;19.032;2023-12-20T14:16:40;97363.16;;;5.43;73.33
40918;BME280;26644;50.248;19.032;2023-12-20T14:19:47;97358.78;;;5.42;73.28
40918;BME280;26644;50.248;19.032;2023-12-20T14:22:55;97348.72;;;5.38;73.27
40918;BME280;26644;50.248;19.032;2023-12-20T14:26:00;97352.53;;;5.37;73.20
40918;BME280;26644;50.248;19.032;2023-12-20T14:29:05;97353.88;;;5.34;73.41
40918;BME280;26644;50.248;19.032;2023-12-20T14:32:11;97349.53;;;5.33;73.42
40918;BME280;26644;50.248;19.032;2023-12-20T14:35:16;97351.44;;;5.33;73.12
40918;BME280;26644;50.248;19.032;2023-12-20T14:38:24;97346.53;;;5.30;73.40
40918;BME280;26644;50.248;19.032;2023-12-20T14:41:29;97356.03;;;5.27;73.06
40918;BME280;26644;50.248;19.032;2023-12-20T14:44:34;97352.50;;;5.21;72.97
40918;BME280;26644;50.248;19.032;2023-12-20T14:47:39;97353.84;;;5.14;72.94
40918;BME280;26644;50.248;19.032;2023-12-20T14:50:44;97353.31;;;5.06;73.33
40918;BME280;26644;50.248;19.032;2023-12-20T14:53:52;97352.22;;;4.97;73.54
40918;BME280;26644;50.248;19.032;2023-12-20T14:56:57;97357.94;;;4.96;73.31
40918;BME280;26644;50.248;19.032;2023-12-20T15:00:04;97356.00;;;4.91;73.78
40918;BME280;26644;50.248;19.032;2023-12-20T15:03:10;97349.47;;;4.87;73.84
40918;BME280;26644;50.248;19.032;2023-12-20T15:06:17;97353.00;;;4.82;73.99
40918;BME280;26644;50.248;19.032;2023-12-20T15:09:27;97345.66;;;4.77;74.32
40918;BME280;26644;50.248;19.032;2023-12-20T15:12:31;97343.50;;;4.80;73.99
40918;BME280;26644;50.248;19.032;2023-12-20T15:15:37;97341.56;;;4.75;74.53
40918;BME280;26644;50.248;19.032;2023-12-20T15:18:42;97335.28;;;4.69;74.47
40918;BME280;26644;50.248;19.032;2023-12-20T15:21:47;97326.84;;;4.60;74.10
40918;BME280;26644;50.248;19.032;2023-12-20T15:24:54;97336.28;;;4.53;74.45
40918;BME280;26644;50.248;19.032;2023-12-20T15:28:00;97335.16;;;4.43;74.58
40918;BME280;26644;50.248;19.032;2023-12-20T15:31:04;97334.63;;;4.36;75.06
40918;BME280;26644;50.248;19.032;2023-12-20T15:34:11;97333.22;;;4.28;74.97
40918;BME280;26644;50.248;19.032;2023-12-20T15:37:16;97334.28;;;4.17;75.10
40918;BME280;26644;50.248;19.032;2023-12-20T15:40:24;97337.00;;;4.17;75.57
40918;BME280;26644;50.248;19.032;2023-12-20T15:43:28;97327.19;;;4.16;75.22
40918;BME280;26644;50.248;19.032;2023-12-20T15:46:33;97324.47;;;4.16;75.03
40918;BME280;26644;50.248;19.032;2023-12-20T15:49:38;97327.50;;;4.20;74.32
40918;BME280;26644;50.248;19.032;2023-12-20T15:52:43;97320.19;;;4.25;73.88
40918;BME280;26644;50.248;19.032;2023-12-20T15:55:50;97322.94;;;4.36;73.51
40918;BME280;26644;50.248;19.032;2023-12-20T15:58:56;97331.34;;;4.39;73.57
40918;BME280;26644;50.248;19.032;2023-12-20T16:02:00;97327.84;;;4.44;73.19
40918;BME280;26644;50.248;19.032;2023-12-20T16:05:07;97326.78;;;4.45;73.10
40918;BME280;26644;50.248;19.032;2023-12-20T16:08:12;97330.88;;;4.48;73.30
40918;BME280;26644;50.248;19.032;2023-12-20T16:11:20;97323.81;;;4.52;73.40
40918;BME280;26644;50.248;19.032;2023-12-20T16:14:24;97325.97;;;4.55;73.68
40918;BME280;26644;50.248;19.032;2023-12-20T16:17:31;97325.97;;;4.55;73.94
40918;BME280;26644;50.248;19.032;2023-12-20T16:20:37;97322.19;;;4.56;73.67
40918;BME280;26644;50.248;19.032;2023-12-20T16:23:42;97325.72;;;4.56;73.60
40918;BME280;26644;50.248;19.032;2023-12-20T16:26:50;97321.91;;;4.57;73.80
40918;BME280;26644;50.248;19.032;2023-12-20T16:29:55;97318.91;;;4.54;73.54
40918;BME280;26644;50.248;19.032;2023-12-20T16:32:59;97330.59;;;4.49;73.88
40918;BME280;26644;50.248;19.032;2023-12-20T16:36:06;97315.63;;;4.41;73.90
40918;BME280;26644;50.248;19.032;2023-12-20T16:39:11;97328.63;;;4.34;73.97
40918;BME280;26644;50.248;19.032;2023-12-20T16:42:19;97329.16;;;4.31;74.22
40918;BME280;26644;50.248;19.032;2023-12-20T16:45:24;97331.03;;;4.25;74.13
40918;BME280;26644;50.248;19.032;2023-12-20T16:48:29;97337.81;;;4.23;74.35
40918;BME280;26644;50.248;19.032;2023-12-20T16:51:34;97340.81;;;4.21;74.34
40918;BME280;26644;50.248;19.032;2023-12-20T16:54:39;97328.00;;;4.17;74.29
40918;BME280;26644;50.248;19.032;2023-12-20T16:57:46;97344.84;;;4.14;74.44
40918;BME280;26644;50.248;19.032;2023-12-20T17:00:52;97339.13;;;4.15;74.28
40918;BME280;26644;50.248;19.032;2023-12-20T17:03:56;97332.38;;;4.18;74.49
40918;BME280;26644;50.248;19.032;2023-12-20T17:07:03;97326.66;;;4.19;74.14
40918;BME280;26644;50.248;19.032;2023-12-20T17:10:08;97319.06;;;4.21;74.31
40918;BME280;26644;50.248;19.032;2023-12-20T17:13:16;97326.16;;;4.27;74.06
40918;BME280;26644;50.248;19.032;2023-12-20T17:16:21;97315.03;;;4.29;73.87
40918;BME280;26644;50.248;19.032;2023-12-20T17:19:26;97314.75;;;4.31;73.61
40918;BME280;26644;50.248;19.032;2023-12-20T17:22:32;97314.75;;;4.31;73.54
40918;BME280;26644;50.248;19.032;2023-12-20T17:25:38;97316.94;;;4.34;73.65
40918;BME280;26644;50.248;19.032;2023-12-20T17:28:45;97315.56;;;4.31;73.36
40918;BME280;26644;50.248;19.032;2023-12-20T17:31:51;97323.19;;;4.39;73.09
40918;BME280;26644;50.248;19.032;2023-12-20T17:34:55;97324.56;;;4.42;73.14
40918;BME280;26644;50.248;19.032;2023-12-20T17:38:00;97329.22;;;4.47;72.97
40918;BME280;26644;50.248;19.032;2023-12-20T17:41:05;97327.88;;;4.49;72.84
40918;BME280;26644;50.248;19.032;2023-12-20T17:44:13;97322.97;;;4.51;72.71
40918;BME280;26644;50.248;19.032;2023-12-20T17:47:17;97326.53;;;4.57;72.39
40918;BME280;26644;50.248;19.032;2023-12-20T17:50:23;97318.16;;;4.58;72.02
40918;BME280;26644;50.248;19.032;2023-12-20T17:53:27;97303.47;;;4.59;71.75
40918;BME280;26644;50.248;19.032;2023-12-20T17:56:32;97311.88;;;4.63;71.71
40918;BME280;26644;50.248;19.032;2023-12-20T17:59:39;97315.69;;;4.67;71.54
40918;BME280;26644;50.248;19.032;2023-12-20T18:02:45;97318.19;;;4.69;71.03
40918;BME280;26644;50.248;19.032;2023-12-20T18:05:50;97312.75;;;4.69;71.05
40918;BME280;26644;50.248;19.032;2023-12-20T18:08:55;97320.34;;;4.72;70.50
40918;BME280;26644;50.248;19.032;2023-12-20T18:12:00;97315.19;;;4.75;70.84
40918;BME280;26644;50.248;19.032;2023-12-20T18:15:09;97307.03;;;4.75;70.43
40918;BME280;26644;50.248;19.032;2023-12-20T18:18:15;97306.78;;;4.77;70.33
40918;BME280;26644;50.248;19.032;2023-12-20T18:21:20;97295.06;;;4.76;70.00
40918;BME280;26644;50.248;19.032;2023-12-20T18:24:25;97297.78;;;4.76;69.95
40918;BME280;26644;50.248;19.032;2023-12-20T18:27:30;97301.34;;;4.77;69.73
40918;BME280;26644;50.248;19.032;2023-12-20T18:30:37;97304.06;;;4.77;69.66
40918;BME280;26644;50.248;19.032;2023-12-20T18:33:43;97306.78;;;4.77;69.28
40918;BME280;26644;50.248;19.032;2023-12-20T18:36:47;97310.03;;;4.79;69.36
40918;BME280;26644;50.248;19.032;2023-12-20T18:39:52;97326.91;;;4.81;69.56
40918;BME280;26644;50.248;19.032;2023-12-20T18:42:57;97329.34;;;4.83;69.40
40918;BME280;26644;50.248;19.032;2023-12-20T18:46:05;97328.25;;;4.84;69.07
40918;BME280;26644;50.248;19.032;2023-12-20T18:49:10;97318.19;;;4.79;69.36
40918;BME280;26644;50.248;19.032;2023-12-20T18:52:15;97321.75;;;4.85;69.07
40918;BME280;26644;50.248;19.032;2023-12-20T18:55:20;97303.78;;;4.78;68.96
40918;BME280;26644;50.248;19.032;2023-12-20T18:58:25;97301.34;;;4.87;69.52
40918;BME280;26644;50.248;19.032;2023-12-20T19:01:34;97301.06;;;4.89;68.34
40918;BME280;26644;50.248;19.032;2023-12-20T19:04:40;97294.28;;;4.86;68.35
40918;BME280;26644;50.248;19.032;2023-12-20T19:07:44;97305.16;;;4.86;67.92
40918;BME280;26644;50.248;19.032;2023-12-20T19:10:50;97288.84;;;4.86;67.57
40918;BME280;26644;50.248;19.032;2023-12-20T19:13:56;97277.66;;;4.83;67.84
40918;BME280;26644;50.248;19.032;2023-12-20T19:17:04;97298.06;;;4.80;67.48
40918;BME280;26644;50.248;19.032;2023-12-20T19:20:10;97287.44;;;4.73;67.50
40918;BME280;26644;50.248;19.032;2023-12-20T19:23:15;97293.19;;;4.77;67.62
40918;BME280;26644;50.248;19.032;2023-12-20T19:26:20;97302.97;;;4.78;67.48
40918;BME280;26644;50.248;19.032;2023-12-20T19:29:25;97309.50;;;4.77;67.33
40918;BME280;26644;50.248;19.032;2023-12-20T19:32:32;97314.94;;;4.77;67.39
40918;BME280;26644;50.248;19.032;2023-12-20T19:35:38;97313.84;;;4.78;67.58
40918;BME280;26644;50.248;19.032;2023-12-20T19:38:42;97302.41;;;4.81;67.55
40918;BME280;26644;50.248;19.032;2023-12-20T19:41:48;97285.00;;;4.77;67.58
40918;BME280;26644;50.248;19.032;2023-12-20T19:44:52;97281.72;;;4.70;67.44
40918;BME280;26644;50.248;19.032;2023-12-20T19:48:01;97286.91;;;4.66;67.40
40918;BME280;26644;50.248;19.032;2023-12-20T19:51:06;97293.41;;;4.60;67.53
40918;BME280;26644;50.248;19.032;2023-12-20T19:54:12;97296.63;;;4.57;67.59
40918;BME280;26644;50.248;19.032;2023-12-20T19:57:17;97276.22;;;4.49;68.03
40918;BME280;26644;50.248;19.032;2023-12-20T20:00:23;97278.13;;;4.49;67.90
40918;BME280;26644;50.248;19.032;2023-12-20T20:03:31;97284.09;;;4.45;68.11
40918;BME280;26644;50.248;19.032;2023-12-20T20:06:37;97287.34;;;4.42;68.06
40918;BME280;26644;50.248;19.032;2023-12-20T20:09:41;97285.16;;;4.39;68.28
40918;BME280;26644;50.248;19.032;2023-12-20T20:12:47;97287.63;;;4.41;68.18
40918;BME280;26644;50.248;19.032;2023-12-20T20:15:51;97292.50;;;4.39;68.28
40918;BME280;26644;50.248;19.032;2023-12-20T20:18:59;97287.88;;;4.39;68.26
40918;BME280;26644;50.248;19.032;2023-12-20T20:22:04;97292.22;;;4.40;68.23
40918;BME280;26644;50.248;19.032;2023-12-20T20:25:09;97293.88;;;4.41;68.53
40918;BME280;26644;50.248;19.032;2023-12-20T20:28:14;97280.56;;;4.40;68.14
40918;BME280;26644;50.248;19.032;2023-12-20T20:31:19;97284.34;;;4.34;68.34
40918;BME280;26644;50.248;19.032;2023-12-20T20:34:26;97295.19;;;4.34;68.03
40918;BME280;26644;50.248;19.032;2023-12-20T20:37:32;97304.72;;;4.36;68.46
40918;BME280;26644;50.248;19.032;2023-12-20T20:40:36;97301.19;;;4.36;68.21
40918;BME280;26644;50.248;19.032;2023-12-20T20:43:42;97300.94;;;4.42;67.96
40918;BME280;26644;50.248;19.032;2023-12-20T20:46:46;97288.97;;;4.43;67.73
40918;BME280;26644;50.248;19.032;2023-12-20T20:49:55;97275.94;;;4.40;67.50
40918;BME280;26644;50.248;19.032;2023-12-20T20:52:59;97284.91;;;4.41;67.39
40918;BME280;26644;50.248;19.032;2023-12-20T20:56:06;97284.63;;;4.37;67.67
40918;BME280;26644;50.248;19.032;2023-12-20T20:59:11;97282.97;;;4.31;67.54
40918;BME280;26644;50.248;19.032;2023-12-20T21:02:16;97293.53;;;4.27;67.61
40918;BME280;26644;50.248;19.032;2023-12-20T21:05:23;97297.06;;;4.23;67.99
40918;BME280;26644;50.248;19.032;2023-12-20T21:08:28;97288.13;;;4.22;67.93
40918;BME280;26644;50.248;19.032;2023-12-20T21:11:33;97288.13;;;4.22;68.17
40918;BME280;26644;50.248;19.032;2023-12-20T21:14:38;97288.63;;;4.19;68.25
40918;BME280;26644;50.248;19.032;2023-12-20T21:17:43;97289.72;;;4.23;67.79
40918;BME280;26644;50.248;19.032;2023-12-20T21:20:51;97288.38;;;4.26;67.69
40918;BME280;26644;50.248;19.032;2023-12-20T21:23:55;97296.25;;;4.27;68.03
40918;BME280;26644;50.248;19.032;2023-12-20T21:27:01;97281.06;;;4.26;67.70
40918;BME280;26644;50.248;19.032;2023-12-20T21:30:07;97281.31;;;4.30;67.76
40918;BME280;26644;50.248;19.032;2023-12-20T21:33:14;97287.03;;;4.28;67.86
40918;BME280;26644;50.248;19.032;2023-12-20T21:36:21;97279.16;;;4.27;67.56
40918;BME280;26644;50.248;19.032;2023-12-20T21:39:26;97290.59;;;4.29;67.79
40918;BME280;26644;50.248;19.032;2023-12-20T21:42:31;97270.44;;;4.30;67.77
40918;BME280;26644;50.248;19.032;2023-12-20T21:45:36;97274.28;;;4.29;67.55
40918;BME280;26644;50.248;19.032;2023-12-20T21:48:41;97271.81;;;4.27;67.93
40918;BME280;26644;50.248;19.032;2023-12-20T21:51:49;97271.56;;;4.29;67.79
40918;BME280;26644;50.248;19.032;2023-12-20T21:54:53;97280.53;;;4.30;68.03
40918;BME280;26644;50.248;19.032;2023-12-20T21:57:59;97281.31;;;4.30;68.00
40918;BME280;26644;50.248;19.032;2023-12-20T22:01:03;97294.41;;;4.33;67.85
40918;BME280;26644;50.248;19.032;2023-12-20T22:04:09;97292.78;;;4.37;68.04
40918;BME280;26644;50.248;19.032;2023-12-20T22:07:16;97280.56;;;4.40;68.01
40918;BME280;26644;50.248;19.032;2023-12-20T22:10:22;97282.19;;;4.41;68.27
40918;BME280;26644;50.248;19.032;2023-12-20T22:13:26;97287.34;;;4.42;68.49
40918;BME280;26644;50.248;19.032;2023-12-20T22:16:33;97284.38;;;4.44;68.65
40918;BME280;26644;50.248;19.032;2023-12-20T22:19:41;97272.41;;;4.40;68.46
40918;BME280;26644;50.248;19.032;2023-12-20T22:22:49;97279.19;;;4.42;68.60
40918;BME280;26644;50.248;19.032;2023-12-20T22:25:54;97270.50;;;4.40;68.95
40918;BME280;26644;50.248;19.032;2023-12-20T22:28:59;97273.22;;;4.40;68.67
40918;BME280;26644;50.248;19.032;2023-12-20T22:32:04;97260.69;;;4.39;68.51
40918;BME280;26644;50.248;19.032;2023-12-20T22:35:10;97260.97;;;4.38;68.88
40918;BME280;26644;50.248;19.032;2023-12-20T22:38:19;97255.81;;;4.36;68.96
40918;BME280;26644;50.248;19.032;2023-12-20T22:41:24;97251.72;;;4.34;68.90
40918;BME280;26644;50.248;19.032;2023-12-20T22:44:28;97264.22;;;4.35;68.78
40918;BME280;26644;50.248;19.032;2023-12-20T22:47:34;97255.25;;;4.34;68.79
40918;BME280;26644;50.248;19.032;2023-12-20T22:50:38;97254.16;;;4.30;68.88
40918;BME280;26644;50.248;19.032;2023-12-20T22:53:46;97239.75;;;4.30;68.52
40918;BME280;26644;50.248;19.032;2023-12-20T22:56:52;97236.25;;;4.29;68.81
40918;BME280;26644;50.248;19.032;2023-12-20T22:59:58;97216.94;;;4.25;68.66
40918;BME280;26644;50.248;19.032;2023-12-20T23:03:02;97235.69;;;4.32;69.30
40918;BME280;26644;50.248;19.032;2023-12-20T23:06:08;97234.34;;;4.35;69.05
40918;BME280;26644;50.248;19.032;2023-12-20T23:09:15;97231.34;;;4.36;68.90
40918;BME280;26644;50.248;19.032;2023-12-20T23:12:20;97236.78;;;4.36;69.04
40918;BME280;26644;50.248;19.032;2023-12-20T23:15:25;97222.41;;;4.36;68.88
40918;BME280;26644;50.248;19.032;2023-12-20T23:18:30;97220.19;;;4.33;69.08
40918;BME280;26644;50.248;19.032;2023-12-20T23:21:34;97225.63;;;4.33;69.04
40918;BME280;26644;50.248;19.032;2023-12-20T23:24:42;97212.88;;;4.33;68.68
40918;BME280;26644;50.248;19.032;2023-12-20T23:27:47;97195.22;;;4.31;68.67
40918;BME280;26644;50.248;19.032;2023-12-20T23:30:55;97204.72;;;4.33;68.62
40918;BME280;26644;50.248;19.032;2023-12-20T23:33:59;97210.16;;;4.33;68.53
40918;BME280;26644;50.248;19.032;2023-12-20T23:37:04;97200.66;;;4.36;68.45
40918;BME280;26644;50.248;19.032;2023-12-20T23:40:15;97202.81;;;4.39;68.85
40918;BME280;26644;50.248;19.032;2023-12-20T23:43:20;97192.75;;;4.39;68.98
40918;BME280;26644;50.248;19.032;2023-12-20T23:46:24;97194.94;;;4.37;68.63
40918;BME280;26644;50.248;19.032;2023-12-20T23:49:30;97195.47;;;4.39;68.91
40918;BME280;26644;50.248;19.032;2023-12-20T23:52:34;97189.50;;;4.37;68.94
40918;BME280;26644;50.248;19.032;2023-12-20T23:55:42;97184.59;;;4.39;68.96
40918;BME280;26644;50.248;19.032;2023-12-20T23:58:46;97181.88;;;4.39;68.89
